Manvel, North Dakota
Current Conditions -  °F | °C
As of 3:53 PM on Sunday 25 Jan 2015 (Local Time) from KGFK Reporting Station
Overcast Overcast  
Wind Chill: 17°   Ceiling: 1700
Heat Index: 26°   Visibility: 10mi
Dew Point: 16°   Wind: 9mph
Humidity: 66%   Direction: 200°SSW
Pressure: 29.96"   Gusts: NA
Location:  48.08°N, 97.18°W
Report Text: KGFK 252153Z 20008KT 10SM BKN017 OVC028 M03/M09 A2996 RMK AO2 SLP162 T10331089
Loading
Personal Weather Stations






























Interactive Weather Map New forecast layout! Learn more

10-Day Weather Forecast

Advertisements
Track Severe Weather on mobile